Time,TemperatureF,DewpointF,PressureIn,WindDirection,WindDirectionDegrees,WindSpeedMPH,WindSpeedGustMPH,Humidity,HourlyPrecipIn,Conditions,Clouds,dailyrainin,SoftwareType,DateUTC
2015-03-31 00:02:00,44.5,35.3,28.99,WSW,240,3.5,4.8,69,0.00,,,0.00,proprietary,2015-03-31 04:02:00,
2015-03-31 00:07:00,44.2,36.1,28.99,SW,235,3.1,4.9,73,0.00,,,0.00,proprietary,2015-03-31 04:07:00,
2015-03-31 00:12:00,43.7,36.9,28.99,SW,235,3.4,4.0,76,0.00,,,0.00,proprietary,2015-03-31 04:12:00,
2015-03-31 00:17:00,43.4,37.7,28.98,SSW,198,1.7,2.4,80,0.01,,,0.01,proprietary,2015-03-31 04:17:00,
2015-03-31 00:23:00,43.1,38.1,28.98,SW,224,2.9,3.4,82,0.01,,,0.01,proprietary,2015-03-31 04:23:00,
2015-03-31 00:28:00,42.7,38.7,28.98,SW,217,2.2,2.7,85,0.02,,,0.02,proprietary,2015-03-31 04:28:00,
2015-03-31 00:33:00,42.5,39.0,28.97,SSW,199,0.8,1.6,87,0.02,,,0.02,proprietary,2015-03-31 04:33:00,
2015-03-31 00:38:00,42.3,39.3,28.97,SW,215,2.3,4.5,88,0.03,,,0.03,proprietary,2015-03-31 04:38:00,
2015-03-31 00:43:00,42.3,39.5,28.96,SSW,202,2.3,3.1,89,0.04,,,0.04,proprietary,2015-03-31 04:43:00,
2015-03-31 00:48:00,42.3,39.7,28.96,North,0,0.0,0.0,90,0.04,,,0.04,proprietary,2015-03-31 04:48:00,
2015-03-31 00:53:00,42.3,39.9,28.96,SSW,210,0.1,1.0,90,0.05,,,0.05,proprietary,2015-03-31 04:53:00,
2015-03-31 00:58:00,42.2,39.9,28.96,South,169,0.3,0.9,91,0.05,,,0.05,proprietary,2015-03-31 04:58:00,
2015-03-31 01:03:00,42.1,39.9,28.95,SE,137,0.7,1.0,91,0.05,,,0.05,proprietary,2015-03-31 05:03:00,
2015-03-31 01:08:00,42.0,40.0,28.95,ESE,106,2.2,2.8,92,0.07,,,0.07,proprietary,2015-03-31 05:08:00,
2015-03-31 01:13:00,42.0,40.0,28.94,East,99,2.7,2.8,92,0.07,,,0.07,proprietary,2015-03-31 05:13:00,
2015-03-31 01:18:00,41.4,39.5,28.94,East,85,2.6,3.3,92,0.07,,,0.08,proprietary,2015-03-31 05:18:00,
2015-03-31 01:23:00,41.3,39.6,28.93,ENE,73,5.0,5.9,93,0.08,,,0.09,proprietary,2015-03-31 05:23:00,
2015-03-31 01:28:00,41.3,39.8,28.92,East,99,3.9,4.6,94,0.07,,,0.09,proprietary,2015-03-31 05:28:00,
2015-03-31 01:33:00,41.1,39.6,28.92,ENE,63,4.0,4.7,94,0.07,,,0.09,proprietary,2015-03-31 05:33:00,
2015-03-31 01:38:00,41.2,39.8,28.92,SE,136,1.7,2.7,94,0.06,,,0.09,proprietary,2015-03-31 05:38:00,
2015-03-31 01:43:00,41.2,39.8,28.92,SE,141,1.6,2.2,94,0.05,,,0.09,proprietary,2015-03-31 05:43:00,
2015-03-31 01:48:00,41.1,39.7,28.92,SE,145,1.5,2.7,94,0.05,,,0.09,proprietary,2015-03-31 05:48:00,
2015-03-31 01:53:00,41.1,39.7,28.92,SSE,154,1.4,1.9,94,0.04,,,0.09,proprietary,2015-03-31 05:53:00,
2015-03-31 01:58:00,41.0,39.7,28.91,ESE,113,1.2,1.6,95,0.04,,,0.09,proprietary,2015-03-31 05:58:00,
2015-03-31 02:03:00,41.0,39.7,28.90,ESE,102,2.7,3.3,95,0.04,,,0.09,proprietary,2015-03-31 06:03:00,
2015-03-31 02:08:00,40.8,39.6,28.90,ESE,119,2.0,2.8,95,0.02,,,0.09,proprietary,2015-03-31 06:08:00,
2015-03-31 02:13:00,40.7,39.5,28.90,SE,124,2.4,2.7,95,0.02,,,0.09,proprietary,2015-03-31 06:13:00,
2015-03-31 02:18:00,40.7,39.5,28.90,ESE,121,2.8,3.7,95,0.01,,,0.09,proprietary,2015-03-31 06:18:00,
2015-03-31 02:23:00,40.7,39.5,28.89,ESE,121,2.9,3.6,95,0.00,,,0.09,proprietary,2015-03-31 06:23:00,
2015-03-31 02:28:00,40.6,39.4,28.89,ESE,114,2.6,3.2,95,0.00,,,0.09,proprietary,2015-03-31 06:28:00,
2015-03-31 02:33:00,40.6,39.4,28.90,ESE,122,2.4,3.9,95,0.00,,,0.09,proprietary,2015-03-31 06:33:00,
2015-03-31 02:38:00,40.6,39.4,28.89,ESE,108,2.0,2.3,95,0.00,,,0.09,proprietary,2015-03-31 06:38:00,
2015-03-31 02:43:00,40.4,39.2,28.88,East,94,3.5,5.0,95,0.00,,,0.09,proprietary,2015-03-31 06:43:00,
2015-03-31 02:48:00,40.3,39.2,28.88,SSW,204,1.2,3.0,95,0.00,,,0.09,proprietary,2015-03-31 06:48:00,
2015-03-31 02:53:00,40.2,39.0,28.87,East,97,4.0,4.9,95,0.00,,,0.09,proprietary,2015-03-31 06:53:00,
2015-03-31 02:58:00,40.3,39.1,28.86,East,94,7.2,8.7,95,0.00,,,0.09,proprietary,2015-03-31 06:58:00,
2015-03-31 03:03:00,40.3,39.0,28.86,ESE,110,5.0,5.8,95,0.00,,,0.09,proprietary,2015-03-31 07:03:00,
2015-03-31 03:08:00,40.4,39.1,28.85,ESE,107,6.5,7.8,95,0.00,,,0.09,proprietary,2015-03-31 07:08:00,
2015-03-31 03:13:00,40.5,39.2,28.84,East,95,7.1,10.5,94,0.00,,,0.09,proprietary,2015-03-31 07:13:00,
2015-03-31 03:18:00,40.4,39.1,28.85,ENE,71,8.6,10.3,95,0.01,,,0.10,proprietary,2015-03-31 07:18:00,
2015-03-31 03:23:00,39.3,37.9,28.86,East,86,8.7,10.1,94,0.01,,,0.10,proprietary,2015-03-31 07:23:00,
2015-03-31 03:28:00,38.9,37.6,28.86,ENE,74,7.2,8.5,94,0.01,,,0.10,proprietary,2015-03-31 07:28:00,
2015-03-31 03:33:00,38.3,36.9,28.86,NE,56,5.7,6.4,94,0.01,,,0.10,proprietary,2015-03-31 07:33:00,
2015-03-31 03:38:00,37.8,36.4,28.86,East,80,4.2,5.1,94,0.01,,,0.10,proprietary,2015-03-31 07:38:00,
2015-03-31 03:43:00,37.8,36.4,28.86,ESE,106,4.8,6.2,94,0.01,,,0.10,proprietary,2015-03-31 07:43:00,
2015-03-31 03:48:00,37.1,35.7,28.86,ENE,77,6.2,8.2,94,0.01,,,0.10,proprietary,2015-03-31 07:48:00,
2015-03-31 03:53:00,36.8,35.3,28.86,East,79,6.8,7.5,94,0.01,,,0.10,proprietary,2015-03-31 07:53:00,
2015-03-31 03:58:00,36.7,35.3,28.85,East,87,5.5,6.8,94,0.01,,,0.10,proprietary,2015-03-31 07:58:00,
2015-03-31 04:03:00,36.6,35.3,28.85,East,98,4.1,5.6,94,0.01,,,0.10,proprietary,2015-03-31 08:03:00,
2015-03-31 04:08:00,36.7,35.5,28.85,ESE,115,3.8,5.6,95,0.01,,,0.10,proprietary,2015-03-31 08:08:00,
2015-03-31 04:13:00,36.7,35.4,28.85,SE,130,3.3,4.2,95,0.01,,,0.10,proprietary,2015-03-31 08:13:00,
2015-03-31 04:18:00,36.7,35.5,28.85,East,88,3.8,5.4,95,0.00,,,0.10,proprietary,2015-03-31 08:18:00,
2015-03-31 04:23:00,36.6,35.4,28.84,ESE,111,4.2,5.4,95,0.00,,,0.10,proprietary,2015-03-31 08:23:00,
2015-03-31 04:29:00,36.6,35.4,28.83,East,88,5.5,6.0,95,0.01,,,0.11,proprietary,2015-03-31 08:29:00,
2015-03-31 04:34:00,36.5,35.3,28.82,ESE,117,3.9,5.4,95,0.01,,,0.11,proprietary,2015-03-31 08:34:00,
2015-03-31 04:39:00,36.5,35.4,28.83,East,93,3.5,4.6,95,0.01,,,0.11,proprietary,2015-03-31 08:39:00,
2015-03-31 04:44:00,36.4,35.2,28.83,ESE,103,1.9,2.3,95,0.01,,,0.11,proprietary,2015-03-31 08:44:00,
2015-03-31 04:49:00,36.4,35.2,28.82,East,99,5.3,6.0,95,0.01,,,0.11,proprietary,2015-03-31 08:49:00,
2015-03-31 04:54:00,36.3,35.2,28.81,ESE,117,6.1,7.1,95,0.01,,,0.11,proprietary,2015-03-31 08:54:00,
2015-03-31 04:59:00,36.2,35.0,28.81,ESE,114,4.0,5.8,95,0.01,,,0.11,proprietary,2015-03-31 08:59:00,
2015-03-31 05:04:00,36.2,35.1,28.81,ESE,107,5.2,6.7,95,0.01,,,0.11,proprietary,2015-03-31 09:04:00,
2015-03-31 05:09:00,36.1,34.9,28.81,ESE,118,4.1,5.1,95,0.01,,,0.11,proprietary,2015-03-31 09:09:00,
2015-03-31 05:14:00,36.1,34.9,28.80,East,98,6.0,9.7,95,0.01,,,0.11,proprietary,2015-03-31 09:14:00,
2015-03-31 05:19:00,36.0,34.8,28.80,ESE,104,4.6,5.0,95,0.01,,,0.11,proprietary,2015-03-31 09:19:00,
2015-03-31 05:24:00,36.2,35.0,28.79,ESE,102,6.3,7.2,95,0.01,,,0.11,proprietary,2015-03-31 09:24:00,
2015-03-31 05:29:00,36.0,34.8,28.79,ESE,110,5.9,8.4,95,0.00,,,0.11,proprietary,2015-03-31 09:29:00,
2015-03-31 05:34:00,35.9,34.8,28.79,ESE,113,6.1,8.0,95,0.00,,,0.11,proprietary,2015-03-31 09:34:00,
2015-03-31 05:39:00,35.9,34.8,28.80,ESE,104,4.2,6.6,95,0.00,,,0.11,proprietary,2015-03-31 09:39:00,
2015-03-31 05:44:00,36.0,34.9,28.80,East,92,5.3,6.6,95,0.01,,,0.12,proprietary,2015-03-31 09:44:00,
2015-03-31 05:49:00,35.9,34.8,28.79,ESE,117,6.7,9.0,95,0.02,,,0.13,proprietary,2015-03-31 09:49:00,
2015-03-31 05:54:00,36.0,34.8,28.79,East,84,2.4,3.0,95,0.03,,,0.14,proprietary,2015-03-31 09:54:00,
2015-03-31 05:59:00,35.9,34.8,28.78,East,84,6.5,7.9,95,0.03,,,0.14,proprietary,2015-03-31 09:59:00,
2015-03-31 06:04:00,35.8,34.7,28.77,ESE,117,3.1,4.4,95,0.03,,,0.14,proprietary,2015-03-31 10:04:00,
2015-03-31 06:09:00,35.8,34.6,28.76,SE,129,5.1,6.4,95,0.03,,,0.14,proprietary,2015-03-31 10:09:00,
2015-03-31 06:14:00,35.7,34.6,28.75,ESE,113,7.1,11.4,95,0.03,,,0.14,proprietary,2015-03-31 10:14:00,
2015-03-31 06:19:00,35.7,34.6,28.78,SE,128,4.0,5.9,95,0.03,,,0.14,proprietary,2015-03-31 10:19:00,
2015-03-31 06:24:00,35.7,34.7,28.78,ENE,70,4.3,5.0,95,0.03,,,0.14,proprietary,2015-03-31 10:24:00,
2015-03-31 06:29:00,35.7,34.7,28.77,NE,55,5.1,7.1,95,0.04,,,0.15,proprietary,2015-03-31 10:29:00,
2015-03-31 06:34:00,35.6,34.5,28.76,East,92,7.9,9.0,95,0.05,,,0.16,proprietary,2015-03-31 10:34:00,
2015-03-31 06:39:00,35.6,34.5,28.76,East,88,5.8,7.4,95,0.05,,,0.16,proprietary,2015-03-31 10:39:00,
2015-03-31 06:45:00,35.6,34.5,28.76,ENE,67,3.2,4.1,95,0.04,,,0.16,proprietary,2015-03-31 10:45:00,
2015-03-31 06:50:00,35.5,34.4,28.76,East,81,7.4,8.8,95,0.03,,,0.16,proprietary,2015-03-31 10:50:00,
2015-03-31 06:55:00,35.3,34.2,28.76,East,84,7.6,9.1,95,0.02,,,0.16,proprietary,2015-03-31 10:55:00,
2015-03-31 07:00:00,35.4,34.3,28.76,ENE,72,3.1,4.6,95,0.02,,,0.16,proprietary,2015-03-31 11:00:00,
2015-03-31 07:05:00,35.3,34.2,28.76,ENE,78,5.7,6.6,95,0.02,,,0.16,proprietary,2015-03-31 11:05:00,
2015-03-31 07:10:00,35.2,34.1,28.76,East,87,8.2,9.6,95,0.02,,,0.16,proprietary,2015-03-31 11:10:00,
2015-03-31 07:15:00,35.3,34.2,28.77,East,92,4.3,5.0,95,0.02,,,0.16,proprietary,2015-03-31 11:15:00,
2015-03-31 07:20:00,35.2,34.1,28.77,ENE,65,3.5,4.8,95,0.02,,,0.16,proprietary,2015-03-31 11:20:00,
2015-03-31 07:25:00,35.2,34.0,28.76,ENE,78,6.1,7.0,95,0.02,,,0.16,proprietary,2015-03-31 11:25:00,
2015-03-31 07:30:00,35.3,34.1,28.77,ENE,77,5.2,6.1,95,0.01,,,0.16,proprietary,2015-03-31 11:30:00,
2015-03-31 07:35:00,35.2,34.0,28.76,East,101,5.8,7.6,95,0.00,,,0.16,proprietary,2015-03-31 11:35:00,
2015-03-31 07:40:00,35.1,33.8,28.77,ENE,72,5.0,5.9,95,0.00,,,0.16,proprietary,2015-03-31 11:40:00,
2015-03-31 07:45:00,35.0,33.8,28.77,ENE,61,4.5,5.6,95,0.00,,,0.16,proprietary,2015-03-31 11:45:00,
2015-03-31 07:50:00,35.0,33.7,28.78,NE,50,6.0,7.5,95,0.00,,,0.16,proprietary,2015-03-31 11:50:00,
2015-03-31 07:55:00,35.0,33.7,28.78,NE,53,4.5,6.2,95,0.00,,,0.16,proprietary,2015-03-31 11:55:00,
2015-03-31 08:00:00,35.0,33.7,28.78,ENE,59,4.4,5.2,95,0.00,,,0.16,proprietary,2015-03-31 12:00:00,
2015-03-31 08:05:00,35.1,33.8,28.78,ENE,59,4.0,4.8,95,0.00,,,0.16,proprietary,2015-03-31 12:05:00,
2015-03-31 08:10:00,35.1,33.9,28.78,ENE,74,4.4,6.3,95,0.00,,,0.16,proprietary,2015-03-31 12:10:00,
2015-03-31 08:15:00,35.2,33.9,28.78,East,85,3.8,4.3,95,0.00,,,0.16,proprietary,2015-03-31 12:15:00,
2015-03-31 08:20:00,35.2,33.9,28.78,ENE,70,4.1,4.7,95,0.00,,,0.16,proprietary,2015-03-31 12:20:00,
2015-03-31 08:25:00,35.5,34.2,28.79,North,356,3.3,4.4,95,0.00,,,0.16,proprietary,2015-03-31 12:25:00,
2015-03-31 08:30:00,35.5,34.2,28.79,NNE,23,4.0,6.3,95,0.00,,,0.16,proprietary,2015-03-31 12:30:00,
2015-03-31 08:35:00,35.5,34.2,28.79,NE,44,5.1,6.8,95,0.00,,,0.16,proprietary,2015-03-31 12:35:00,
2015-03-31 08:40:00,35.2,33.9,28.79,NE,36,6.9,9.1,94,0.00,,,0.16,proprietary,2015-03-31 12:40:00,
2015-03-31 08:45:00,35.1,33.8,28.79,NE,35,4.5,6.3,95,0.00,,,0.16,proprietary,2015-03-31 12:45:00,
2015-03-31 08:50:00,35.0,33.7,28.79,North,9,2.7,7.2,95,0.00,,,0.16,proprietary,2015-03-31 12:50:00,
2015-03-31 08:55:00,34.8,33.6,28.79,NNE,33,5.4,6.3,95,0.00,,,0.16,proprietary,2015-03-31 12:55:00,
2015-03-31 09:00:00,34.9,33.7,28.79,NNE,12,4.1,5.2,95,0.00,,,0.16,proprietary,2015-03-31 13:00:00,
2015-03-31 09:05:00,35.0,33.7,28.80,NE,45,5.3,6.9,95,0.00,,,0.16,proprietary,2015-03-31 13:05:00,
2015-03-31 09:10:00,35.0,33.8,28.80,ENE,59,5.1,6.8,95,0.00,,,0.16,proprietary,2015-03-31 13:10:00,
2015-03-31 09:15:00,35.0,33.9,28.80,NE,37,5.3,7.4,95,0.00,,,0.16,proprietary,2015-03-31 13:15:00,
2015-03-31 09:20:00,34.9,33.7,28.80,North,10,5.4,9.2,95,0.00,,,0.16,proprietary,2015-03-31 13:20:00,
2015-03-31 09:25:00,34.7,33.5,28.80,NE,54,6.7,7.6,95,0.00,,,0.16,proprietary,2015-03-31 13:25:00,
2015-03-31 09:30:00,34.5,33.3,28.80,ENE,59,6.7,8.0,95,0.00,,,0.16,proprietary,2015-03-31 13:30:00,
2015-03-31 09:35:00,34.5,33.4,28.81,NNE,33,6.2,7.5,95,0.00,,,0.16,proprietary,2015-03-31 13:35:00,